Terminal Aerodrome Forecast
Issued by NWS

Home | Current Version | Previous Version | Text Only | Print | Product List | Glossary On
Versions: 1 2 3 4 5 6 7 8 9 10 11 12
000
FTUS44 KTSA 290500
TAFFYV
TAF
KFYV 290520Z 2906/3006 00000KT P6SM FEW250
     FM291400 VRB04KT P6SM BKN110
     FM292000 30005KT P6SM SCT100
     FM300200 VRB03KT P6SM BKN250=

USA.gov is the U.S. government's official web portal to all federal, state and local government web resources and services.